Time;durP1;ratioP1;P1;durP2;ratioP2;P2;SDS_P1;SDS_P2;PMS_P1;PMS_P2;Temp;Humidity;BMP_temperature;BMP_pressure;BME280_temperature;BME280_humidity;BME280_pressure;Samples;Min_cycle;Max_cycle;Signal;HPM_P1;HPM_P2
2022/05/15 00:03:10;;;;;;;14.63;7.20;;;;;;;13.15;94.05;100961.22;8403549;28;20127;-61
2022/05/15 00:07:11;;;;;;;18.08;7.72;;;;;;;12.82;95.55;100953.50;8404878;28;20086;-61
2022/05/15 00:11:17;;;;;;;15.15;6.30;;;;;;;13.00;93.36;100949.09;8403291;28;20032;-61
2022/05/15 00:15:17;;;;;;;12.45;6.18;;;;;;;12.96;93.03;100947.66;8403340;28;20381;-61
2022/05/15 00:19:17;;;;;;;13.90;6.75;;;;;;;13.00;93.01;100943.69;8402501;28;20048;-61
2022/05/15 00:23:21;;;;;;;21.60;7.72;;;;;;;12.97;92.82;100938.50;8403775;28;20032;-62
2022/05/15 00:27:21;;;;;;;15.43;7.55;;;;;;;12.82;93.70;100945.38;8404102;28;20092;-61
2022/05/15 00:31:23;;;;;;;14.15;8.60;;;;;;;12.70;94.53;100938.38;8399325;28;20044;-61
2022/05/15 00:35:24;;;;;;;18.83;7.97;;;;;;;12.58;95.13;100950.38;8405143;28;20079;-62
2022/05/15 00:39:25;;;;;;;15.25;8.60;;;;;;;12.41;96.02;100942.97;8405771;28;20062;-61
2022/05/15 00:43:47;;;;;;;18.52;8.57;;;;;;;12.33;96.75;100951.81;8404390;28;20489;-62
2022/05/15 00:47:49;;;;;;;17.17;9.07;;;;;;;12.34;96.52;100958.06;8386972;28;20020;-61
2022/05/15 00:51:56;;;;;;;20.63;7.85;;;;;;;12.20;96.88;100956.63;8405286;28;20063;-61
2022/05/15 00:55:57;;;;;;;18.67;8.75;;;;;;;12.13;97.07;100952.75;8401467;28;20513;-61
2022/05/15 01:00:19;;;;;;;15.82;9.40;;;;;;;11.93;98.97;100947.44;8404919;28;20429;-61
2022/05/15 01:04:20;;;;;;;19.65;8.90;;;;;;;12.04;98.25;100950.06;8403865;28;20122;-61
2022/05/15 01:08:22;;;;;;;21.95;8.57;;;;;;;11.85;98.34;100946.31;8405220;28;20055;-61
2022/05/15 01:12:22;;;;;;;15.50;10.18;;;;;;;11.72;100.00;100945.66;8386265;28;20051;-61
2022/05/15 01:16:25;;;;;;;16.85;9.70;;;;;;;11.76;100.00;100946.25;8404767;28;20036;-61
2022/05/15 01:20:28;;;;;;;16.83;10.65;;;;;;;11.71;100.00;100949.38;8402417;28;20044;-61
2022/05/15 01:24:30;;;;;;;17.45;10.00;;;;;;;11.63;100.00;100954.63;8400220;28;20064;-61
2022/05/15 01:28:31;;;;;;;18.83;10.85;;;;;;;11.77;100.00;100954.25;8397041;28;20062;-61
2022/05/15 01:32:32;;;;;;;20.13;10.23;;;;;;;11.72;100.00;100944.81;8401280;28;20036;-61
2022/05/15 01:36:32;;;;;;;22.58;9.85;;;;;;;11.68;100.00;100944.22;8398181;28;20475;-61
2022/05/15 01:40:34;;;;;;;21.67;10.85;;;;;;;11.56;100.00;100939.88;8399560;28;20032;-61
2022/05/15 01:44:34;;;;;;;16.98;10.63;;;;;;;11.55;100.00;100938.16;8397543;28;20037;-61
2022/05/15 01:48:34;;;;;;;22.25;10.13;;;;;;;11.58;100.00;100942.44;8398516;28;20071;-61
2022/05/15 01:52:36;;;;;;;20.27;9.65;;;;;;;11.56;100.00;100939.88;8386670;28;20048;-62
2022/05/15 01:56:37;;;;;;;20.48;10.35;;;;;;;11.14;100.00;100946.41;8398454;28;20102;-62
2022/05/15 02:00:38;;;;;;;21.85;10.43;;;;;;;11.01;100.00;100943.00;8400208;28;20036;-62
2022/05/15 02:04:38;;;;;;;17.30;11.50;;;;;;;11.03;100.00;100938.34;8399987;28;20036;-61
2022/05/15 02:08:39;;;;;;;21.25;11.35;;;;;;;11.34;100.00;100948.19;8400320;28;20039;-62
2022/05/15 02:12:39;;;;;;;23.48;10.90;;;;;;;11.15;100.00;100939.09;8395511;28;20396;-62
2022/05/15 02:16:40;;;;;;;15.82;10.65;;;;;;;10.99;100.00;100945.00;8400316;28;20537;-62
2022/05/15 02:20:40;;;;;;;19.00;10.68;;;;;;;11.23;100.00;100942.00;8399517;28;20033;-62
2022/05/15 02:24:41;;;;;;;20.08;10.55;;;;;;;11.24;100.00;100950.00;8401046;28;20029;-62
2022/05/15 02:28:42;;;;;;;16.55;11.10;;;;;;;11.10;100.00;100939.50;8400698;28;20029;-62
2022/05/15 02:32:42;;;;;;;20.00;11.38;;;;;;;11.08;100.00;100943.34;8399443;28;20405;-62
2022/05/15 02:36:42;;;;;;;19.00;11.77;;;;;;;11.10;100.00;100941.38;8401261;28;20056;-62
2022/05/15 02:40:43;;;;;;;19.67;12.53;;;;;;;11.07;100.00;100936.22;8401264;28;20117;-62
2022/05/15 02:44:44;;;;;;;17.63;10.95;;;;;;;11.24;100.00;100938.31;8388693;28;20790;-62
2022/05/15 02:53:05;;;;;;;18.27;11.57;;;;;;;11.18;100.00;100947.81;8406552;28;20259;-62
2022/05/15 02:57:08;;;;;;;23.50;10.68;;;;;;;11.18;100.00;100947.81;8407179;28;20032;-62
2022/05/15 03:01:08;;;;;;;16.65;10.50;;;;;;;11.05;100.00;100940.91;8403549;28;20043;-62
2022/05/15 03:05:11;;;;;;;21.98;12.13;;;;;;;10.96;100.00;100939.00;8406815;28;20028;-62
2022/05/15 03:09:11;;;;;;;19.23;12.57;;;;;;;10.82;100.00;100947.44;8389187;28;20033;-62
2022/05/15 03:13:12;;;;;;;23.10;12.27;;;;;;;10.86;100.00;100957.03;8407341;28;20123;-62
2022/05/15 03:17:12;;;;;;;23.42;12.13;;;;;;;10.75;100.00;100951.66;8406401;28;20035;-62
2022/05/15 03:21:28;;;;;;;33.63;13.15;;;;;;;10.64;100.00;100949.88;8400520;28;20494;-62
2022/05/15 03:25:30;;;;;;;18.23;12.05;;;;;;;10.77;100.00;100945.13;8407141;28;20040;-62
2022/05/15 03:29:31;;;;;;;21.67;11.95;;;;;;;10.93;100.00;100942.84;8405675;28;20033;-62
2022/05/15 03:33:32;;;;;;;21.08;12.15;;;;;;;11.16;100.00;100947.09;8405607;28;20044;-62
2022/05/15 03:37:32;;;;;;;20.08;12.00;;;;;;;11.07;100.00;100938.94;8405136;28;20037;-62
2022/05/15 03:41:34;;;;;;;22.77;12.10;;;;;;;10.96;100.00;100934.47;8404515;28;20063;-62
2022/05/15 03:45:34;;;;;;;28.25;13.95;;;;;;;10.88;100.00;100920.72;8404452;28;20043;-62
2022/05/15 03:49:36;;;;;;;23.58;12.60;;;;;;;10.97;100.00;100933.47;8401219;28;20033;-62
2022/05/15 03:53:37;;;;;;;27.75;13.00;;;;;;;11.00;100.00;100927.78;8397592;28;20048;-62
2022/05/15 03:57:38;;;;;;;23.23;12.15;;;;;;;10.95;100.00;100931.88;8405461;28;20028;-62
2022/05/15 04:01:39;;;;;;;25.17;12.70;;;;;;;10.59;100.00;100932.34;8405203;28;20425;-62
2022/05/15 04:05:39;;;;;;;21.10;12.50;;;;;;;10.60;100.00;100936.75;8405460;28;20036;-62
2022/05/15 04:09:40;;;;;;;21.15;12.32;;;;;;;10.62;100.00;100927.53;8406067;28;20037;-62
2022/05/15 04:13:41;;;;;;;18.90;13.13;;;;;;;10.62;100.00;100935.66;8403281;28;20492;-62
2022/05/15 04:17:43;;;;;;;24.95;13.35;;;;;;;10.62;100.00;100940.19;8376879;28;20435;-62
2022/05/15 04:21:43;;;;;;;19.88;12.38;;;;;;;10.74;100.00;100939.13;8390563;28;20028;-62
2022/05/15 04:25:45;;;;;;;23.10;12.65;;;;;;;11.05;100.00;100955.31;8404716;28;20024;-62
2022/05/15 04:29:45;;;;;;;20.00;11.90;;;;;;;11.29;100.00;100945.03;8405716;28;20040;-62
2022/05/15 04:33:46;;;;;;;17.63;11.13;;;;;;;11.35;100.00;100946.34;8404253;28;20070;-62
2022/05/15 04:37:46;;;;;;;18.08;11.82;;;;;;;11.38;100.00;100946.09;8404832;28;20055;-62
2022/05/15 04:41:47;;;;;;;18.10;11.35;;;;;;;11.44;100.00;100957.22;8402507;28;20037;-62
2022/05/15 04:45:47;;;;;;;17.77;11.80;;;;;;;11.58;100.00;100953.28;8418729;28;20042;-62
2022/05/15 04:49:49;;;;;;;25.45;12.13;;;;;;;11.71;100.00;100960.22;8399224;28;20299;-62
2022/05/15 04:53:50;;;;;;;16.70;11.38;;;;;;;12.01;100.00;100956.59;8399556;28;20104;-62
2022/05/15 04:57:51;;;;;;;20.52;10.77;;;;;;;12.25;99.71;100953.50;8404717;28;20035;-62
2022/05/15 05:01:51;;;;;;;16.98;12.20;;;;;;;12.42;97.31;100958.22;8404821;28;20036;-62
2022/05/15 05:05:52;;;;;;;17.83;9.93;;;;;;;12.63;95.96;100957.09;8404084;28;20060;-62
2022/05/15 05:09:53;;;;;;;20.08;10.23;;;;;;;12.89;94.97;100960.06;8403232;28;20098;-62
2022/05/15 05:13:53;;;;;;;14.40;9.30;;;;;;;13.06;93.96;100964.81;8402958;28;20052;-62
2022/05/15 05:17:55;;;;;;;14.95;10.45;;;;;;;13.10;95.06;100968.94;8402104;28;20041;-62
2022/05/15 05:21:55;;;;;;;21.45;10.45;;;;;;;13.36;94.71;100962.72;8398621;28;20040;-62
2022/05/15 05:25:55;;;;;;;20.52;11.60;;;;;;;13.55;94.34;100969.97;8411508;28;20438;-62
2022/05/15 05:29:56;;;;;;;16.42;10.90;;;;;;;13.69;92.56;100973.03;8402225;28;20044;-62
2022/05/15 05:33:57;;;;;;;17.00;11.50;;;;;;;13.53;93.01;100955.66;8400164;28;20102;-62
2022/05/15 05:37:57;;;;;;;18.63;10.77;;;;;;;13.79;92.45;100973.00;8401200;28;20043;-62
2022/05/15 05:41:57;;;;;;;19.60;11.98;;;;;;;13.93;91.86;100964.34;8400575;28;20478;-62
2022/05/15 05:45:59;;;;;;;17.38;10.82;;;;;;;14.05;91.28;100974.00;8402368;28;20032;-62
2022/05/15 05:49:59;;;;;;;16.30;11.13;;;;;;;14.55;90.49;100975.28;8401661;28;20040;-62
2022/05/15 05:54:00;;;;;;;16.55;10.38;;;;;;;14.90;88.50;100964.38;8400616;28;20086;-62
2022/05/15 05:58:00;;;;;;;21.20;11.68;;;;;;;15.06;88.30;100967.22;8417829;28;20033;-62
2022/05/15 06:02:01;;;;;;;15.10;10.23;;;;;;;15.40;86.71;100965.47;8397528;28;20033;-62
2022/05/15 06:06:01;;;;;;;15.53;10.90;;;;;;;15.52;86.84;100969.63;8404164;28;20139;-62
2022/05/15 06:10:03;;;;;;;21.73;10.00;;;;;;;15.73;86.79;100968.41;8404600;28;20558;-62
2022/05/15 06:14:03;;;;;;;19.17;10.73;;;;;;;15.93;86.15;100958.94;8403813;28;20035;-62
2022/05/15 06:18:06;;;;;;;18.10;9.93;;;;;;;16.04;84.74;100958.66;8409635;28;20040;-62
2022/05/15 06:22:07;;;;;;;20.52;10.63;;;;;;;16.41;84.34;100959.09;8388800;28;20043;-62
2022/05/15 06:26:07;;;;;;;18.15;9.35;;;;;;;16.72;82.49;100962.94;8426403;28;20396;-62
2022/05/15 06:30:09;;;;;;;15.98;8.98;;;;;;;16.59;82.30;100957.13;8410401;28;20047;-62
2022/05/15 06:34:09;;;;;;;13.93;8.75;;;;;;;16.53;83.01;100960.53;8411595;28;20040;-62
2022/05/15 06:38:09;;;;;;;23.92;10.25;;;;;;;16.78;83.93;100965.00;8409869;28;20035;-62
2022/05/15 06:42:10;;;;;;;16.23;8.93;;;;;;;16.97;83.04;100959.19;8391134;28;20036;-62
2022/05/15 06:46:10;;;;;;;17.98;8.90;;;;;;;17.00;82.20;100953.38;8408532;28;20044;-62
2022/05/15 06:50:11;;;;;;;13.77;8.80;;;;;;;17.10;81.69;100954.06;8408856;28;20043;-62
2022/05/15 06:54:12;;;;;;;15.80;8.25;;;;;;;17.53;79.14;100950.94;8407127;28;20033;-62
2022/05/15 06:58:12;;;;;;;13.95;8.38;;;;;;;17.71;79.97;100959.78;8390605;28;20065;-62
2022/05/15 07:02:13;;;;;;;16.40;8.33;;;;;;;18.14;79.19;100955.69;8418845;28;20067;-63
2022/05/15 07:06:13;;;;;;;14.25;8.13;;;;;;;18.44;76.51;100952.97;8403179;28;20271;-63
2022/05/15 07:10:14;;;;;;;15.75;8.30;;;;;;;18.53;76.07;100951.03;8402651;28;20407;-63
2022/05/15 07:14:15;;;;;;;14.27;7.75;;;;;;;18.97;75.06;100947.44;8402105;28;20059;-63
2022/05/15 07:18:15;;;;;;;13.93;6.47;;;;;;;19.54;72.07;100952.44;8402008;28;20052;-63
2022/05/15 07:22:16;;;;;;;12.45;7.28;;;;;;;19.26;72.38;100943.94;8400531;28;20274;-63
2022/05/15 07:26:16;;;;;;;8.20;6.63;;;;;;;19.68;71.81;100954.31;8404551;28;20041;-62
2022/05/15 07:30:17;;;;;;;12.25;6.43;;;;;;;19.74;69.33;100937.97;8397697;28;20790;-63
2022/05/15 07:34:19;;;;;;;15.10;5.70;;;;;;;19.53;70.28;100957.06;8413537;28;20040;-63
2022/05/15 07:38:19;;;;;;;13.40;6.05;;;;;;;19.54;69.68;100955.19;8391861;28;20033;-63
2022/05/15 07:42:20;;;;;;;8.80;5.00;;;;;;;20.28;66.53;100952.25;8382954;28;20082;-64
2022/05/15 07:46:21;;;;;;;14.10;4.88;;;;;;;20.41;65.85;100938.66;8382066;28;20320;-63
2022/05/15 07:50:21;;;;;;;15.95;4.88;;;;;;;21.17;65.43;100934.16;8375663;28;20044;-63
2022/05/15 07:54:22;;;;;;;10.88;4.55;;;;;;;20.92;64.03;100930.09;8378321;28;20036;-63
2022/05/15 07:58:23;;;;;;;8.43;3.97;;;;;;;20.88;63.98;100936.19;8378733;28;20044;-63
2022/05/15 08:02:24;;;;;;;8.55;4.40;;;;;;;21.14;62.93;100928.22;8382368;28;20052;-63
2022/05/15 08:08:09;;;;;;;8.83;3.57;;;;;;;21.04;62.97;100938.69;8378730;28;20055;-63
2022/05/15 08:10:45;;;;;;;7.30;3.65;;;;;;;21.52;62.00;100932.31;8378889;28;20368;-63
2022/05/15 08:14:46;;;;;;;11.60;4.20;;;;;;;21.53;60.66;100928.50;8378201;28;20501;-63
2022/05/15 08:23:40;;;;;;;7.43;3.40;;;;;;;21.67;60.37;100908.28;8373786;28;20277;-64
2022/05/15 08:27:27;;;;;;;8.18;3.50;;;;;;;21.95;59.66;100905.47;8370400;28;20043;-63
2022/05/15 08:31:27;;;;;;;9.38;3.97;;;;;;;21.95;59.93;100906.34;8370868;28;20048;-63
2022/05/15 08:35:29;;;;;;;7.53;3.10;;;;;;;22.17;59.50;100909.84;8372883;28;20420;-62
2022/05/15 08:39:30;;;;;;;7.43;2.55;;;;;;;22.28;59.21;100906.47;8375651;28;20056;-63
2022/05/15 08:44:00;;;;;;;12.02;3.80;;;;;;;22.38;58.29;100894.00;8381280;28;20063;-63
2022/05/15 08:48:05;;;;;;;12.77;3.30;;;;;;;22.16;58.04;100900.72;8373289;28;20045;-63
2022/05/15 08:52:28;;;;;;;10.43;3.72;;;;;;;22.24;58.60;100892.28;8368354;28;20036;-63
2022/05/15 08:56:34;;;;;;;5.07;3.17;;;;;;;22.46;59.02;100882.81;8366737;28;20045;-63
2022/05/15 09:00:42;;;;;;;8.65;2.97;;;;;;;22.93;57.22;100874.41;8354097;28;20572;-63
2022/05/15 09:04:43;;;;;;;11.00;2.95;;;;;;;23.02;58.24;100883.31;8375832;28;20048;-62
2022/05/15 09:09:23;;;;;;;13.38;3.67;;;;;;;23.37;57.62;100887.56;8370370;28;20037;-63
2022/05/15 09:13:37;;;;;;;8.02;3.20;;;;;;;23.30;57.42;100895.03;8374366;28;20071;-63
2022/05/15 09:17:44;;;;;;;;;;;;;;;23.54;56.44;100893.50;8368504;28;20060;-65
2022/05/15 09:21:45;;;;;;;8.93;3.20;;;;;;;23.70;55.59;100887.50;8363664;28;19920;-62
2022/05/15 09:25:54;;;;;;;14.52;3.40;;;;;;;23.52;57.05;100884.56;8359459;28;20120;-62
2022/05/15 09:29:59;;;;;;;9.23;3.13;;;;;;;23.40;54.51;100884.38;8372382;28;20063;-63
2022/05/15 09:34:03;;;;;;;9.32;3.38;;;;;;;23.29;54.80;100884.19;8370371;28;24729;-62
2022/05/15 09:38:38;;;;;;;17.52;3.50;;;;;;;23.59;55.48;100882.63;8372585;28;20037;-62
2022/05/15 09:43:35;;;;;;;10.35;3.60;;;;;;;23.69;54.40;100892.16;8374353;28;20044;-63
2022/05/15 09:46:56;;;;;;;15.10;3.33;;;;;;;24.06;53.77;100882.31;8369311;28;20780;-63
2022/05/15 09:51:00;;;;;;;11.50;3.42;;;;;;;24.87;52.31;100873.13;8378620;28;20098;-63
2022/05/15 09:59:26;;;;;;;12.80;2.80;;;;;;;27.96;47.76;100864.78;8301584;28;20409;-62
2022/05/15 10:03:26;;;;;;;5.20;2.63;;;;;;;28.95;45.90;100853.94;8305017;28;20504;-63
2022/05/15 10:07:32;;;;;;;9.03;1.97;;;;;;;29.80;43.48;100851.69;8297959;28;20050;-63
2022/05/15 10:11:35;;;;;;;14.93;2.65;;;;;;;29.98;42.47;100863.38;8295342;28;20269;-63
2022/05/15 10:15:40;;;;;;;9.27;2.88;;;;;;;29.24;44.31;100852.78;8294764;28;20051;-64
2022/05/15 10:19:51;;;;;;;3.72;2.28;;;;;;;28.87;45.23;100848.78;8281126;28;20141;-63
2022/05/15 10:24:04;;;;;;;9.43;2.53;;;;;;;29.71;43.23;100848.53;8284687;28;20042;-63
2022/05/15 10:28:25;;;;;;;5.10;2.33;;;;;;;30.26;43.99;100851.19;8289587;28;20046;-63
2022/05/15 10:32:34;;;;;;;7.22;2.45;;;;;;;30.32;43.72;100848.22;8294656;28;20076;-63
2022/05/15 10:37:14;;;;;;;8.77;2.67;;;;;;;30.47;42.96;100835.53;8291189;28;20050;-63
2022/05/15 10:41:20;;;;;;;7.40;2.28;;;;;;;30.40;42.07;100831.00;8292040;28;20460;-63
2022/05/15 10:45:45;;;;;;;5.50;2.25;;;;;;;30.39;42.73;100840.47;8305335;28;20030;-63
2022/05/15 10:50:07;;;;;;;6.75;2.13;;;;;;;30.39;42.06;100822.88;8295539;28;20144;-63
2022/05/15 10:59:03;;;;;;;7.30;2.05;;;;;;;30.53;40.62;100806.56;8304297;28;20525;-62
2022/05/15 11:08:16;;;;;;;9.88;2.65;;;;;;;31.26;40.33;100806.66;8286044;27;20397;-62
2022/05/15 11:12:31;;;;;;;9.15;2.15;;;;;;;31.79;39.31;100798.88;8282612;28;20030;-62
2022/05/15 11:17:11;;;;;;;7.40;2.00;;;;;;;31.36;39.03;100803.94;8283339;28;20038;-62
2022/05/15 11:21:20;;;;;;;4.05;1.77;;;;;;;31.96;39.00;100773.53;8271044;28;20038;-62
2022/05/15 11:25:27;;;;;;;4.47;1.70;;;;;;;31.49;39.64;100778.31;8284371;28;20525;-62
2022/05/15 11:29:35;;;;;;;7.65;2.03;;;;;;;31.14;39.98;100770.53;8284556;28;20030;-63
2022/05/15 11:33:54;;;;;;;5.75;2.10;;;;;;;32.49;38.64;100761.91;8284299;28;20044;-62
2022/05/15 11:42:17;;;;;;;6.18;1.73;;;;;;;32.73;37.61;100751.84;8265523;27;20392;-62
2022/05/15 11:46:17;;;;;;;5.30;1.67;;;;;;;32.82;36.91;100766.97;8248472;28;20118;-63
2022/05/15 11:50:35;;;;;;;3.83;1.50;;;;;;;31.72;37.73;100752.69;8310544;28;20046;-63
2022/05/15 11:54:38;;;;;;;4.00;1.65;;;;;;;31.92;37.55;100738.81;8311978;28;20124;-62
2022/05/15 11:58:41;;;;;;;;;;;;;;;30.94;37.65;100741.59;8314234;28;20526;-62
2022/05/15 12:02:50;;;;;;;5.82;1.85;;;;;;;28.72;41.51;100739.94;8312734;28;19917;-62
2022/05/15 12:11:34;;;;;;;4.47;1.77;;;;;;;27.08;43.51;100725.22;8284876;28;20393;-63
2022/05/15 12:15:41;;;;;;;4.10;1.90;;;;;;;26.80;43.76;100720.41;8251233;28;20062;-63
2022/05/15 12:19:45;;;;;;;5.35;2.22;;;;;;;26.75;43.90;100728.59;8250923;28;20089;-63
2022/05/15 12:24:48;;;;;;;6.28;1.65;;;;;;;26.89;44.41;100714.50;8282073;28;20037;-62
2022/05/15 12:28:54;;;;;;;3.60;1.40;;;;;;;26.60;44.16;100713.50;8285753;28;20034;-62
2022/05/15 12:32:50;;;;;;;5.40;1.70;;;;;;;26.65;45.18;100694.22;8269495;28;20053;-62
2022/05/15 12:36:58;;;;;;;5.35;2.13;;;;;;;26.84;44.26;100696.63;8278430;28;20052;-62
2022/05/15 12:41:06;;;;;;;5.75;1.80;;;;;;;26.63;45.56;100688.91;8278024;28;20045;-62
2022/05/15 12:45:12;;;;;;;4.97;1.58;;;;;;;26.58;43.47;100676.81;8278741;28;20502;-62
2022/05/15 12:49:30;;;;;;;4.35;1.30;;;;;;;26.80;44.62;100681.56;8288420;28;20060;-62
2022/05/15 12:53:35;;;;;;;5.68;1.38;;;;;;;26.97;41.71;100670.56;8278836;28;20410;-62
2022/05/15 12:57:47;;;;;;;3.42;1.20;;;;;;;26.81;42.16;100674.91;8278690;28;20039;-63
2022/05/15 13:01:48;;;;;;;4.63;1.70;;;;;;;26.71;41.79;100665.50;8249096;28;20380;-62
2022/05/15 13:10:07;;;;;;;4.60;1.67;;;;;;;26.87;42.88;100675.03;8326645;27;20377;-62
2022/05/15 13:14:16;;;;;;;5.28;1.60;;;;;;;26.95;42.58;100660.81;8310519;28;20048;-63
2022/05/15 13:18:17;;;;;;;2.00;1.42;;;;;;;27.11;42.92;100646.16;8308590;28;20081;-64
2022/05/15 13:22:24;;;;;;;4.97;1.55;;;;;;;26.89;41.98;100650.66;8315541;28;20177;-62
2022/05/15 13:26:34;;;;;;;4.30;1.45;;;;;;;26.86;43.04;100646.44;8319685;28;20068;-62
2022/05/15 13:30:36;;;;;;;4.32;1.20;;;;;;;27.29;43.28;100634.91;8315452;28;20041;-62
2022/05/15 13:34:39;;;;;;;3.45;1.60;;;;;;;27.52;41.95;100640.38;8308355;28;20113;-62
2022/05/15 13:43:32;;;;;;;6.88;1.77;;;;;;;27.32;40.32;100649.13;8320301;28;20041;-62
2022/05/15 13:47:23;;;;;;;4.25;1.50;;;;;;;27.22;43.36;100628.59;8292320;28;20386;-62
2022/05/15 13:51:43;;;;;;;4.05;1.40;;;;;;;26.93;42.33;100613.00;8305353;28;20061;-62
2022/05/15 13:55:44;;;;;;;5.28;1.52;;;;;;;26.97;43.91;100619.75;8294407;28;20074;-62
2022/05/15 14:00:08;;;;;;;4.80;1.65;;;;;;;26.91;44.43;100617.94;8306059;28;20451;-62
2022/05/15 14:04:27;;;;;;;5.22;1.50;;;;;;;27.03;44.63;100613.22;8305128;28;20042;-62
2022/05/15 14:08:27;;;;;;;5.15;1.30;;;;;;;27.24;43.57;100615.34;8308054;28;21101;-62
2022/05/15 14:12:59;;;;;;;3.80;1.80;;;;;;;26.91;44.28;100606.84;8305781;28;20391;-62
2022/05/15 14:17:03;;;;;;;5.65;1.63;;;;;;;26.72;43.41;100608.94;8302621;28;20044;-62
2022/05/15 14:21:10;;;;;;;3.63;1.63;;;;;;;26.86;45.58;100607.59;8280596;28;20742;-62
2022/05/15 14:25:16;;;;;;;7.20;2.03;;;;;;;26.72;45.85;100597.84;8261045;28;20266;-63
2022/05/15 14:29:17;;;;;;;4.97;1.65;;;;;;;26.83;46.00;100597.81;8276923;28;20041;-63
2022/05/15 14:33:21;;;;;;;5.93;1.98;;;;;;;27.11;44.48;100599.78;8248715;28;20057;-63
2022/05/15 14:37:22;;;;;;;6.63;1.63;;;;;;;27.00;44.65;100592.34;8265444;28;20120;-63
2022/05/15 14:41:22;;;;;;;6.93;1.90;;;;;;;27.26;43.69;100577.09;8271294;28;20042;-63
2022/05/15 14:45:22;;;;;;;4.57;1.47;;;;;;;27.08;41.45;100588.34;8267342;28;20089;-63
2022/05/15 14:49:26;;;;;;;2.67;1.57;;;;;;;27.06;41.73;100576.63;8266927;28;20473;-63
2022/05/15 14:53:30;;;;;;;5.90;1.25;;;;;;;26.95;41.56;100572.00;8262736;28;20491;-63
2022/05/15 14:57:31;;;;;;;2.92;1.30;;;;;;;27.07;42.51;100575.56;8279753;28;20049;-63
2022/05/15 15:01:32;;;;;;;3.95;1.00;;;;;;;27.32;41.30;100578.88;8276785;28;20056;-63
2022/05/15 15:05:44;;;;;;;2.65;1.20;;;;;;;27.23;40.68;100574.78;8283759;28;20322;-63
2022/05/15 15:09:44;;;;;;;4.53;1.30;;;;;;;27.29;42.00;100557.16;8286917;28;20041;-63
2022/05/15 15:13:49;;;;;;;4.72;2.47;;;;;;;26.94;42.65;100556.41;8284745;28;20073;-63
2022/05/15 15:17:49;;;;;;;3.47;1.10;;;;;;;27.21;42.56;100563.06;8269881;28;20136;-63
2022/05/15 15:21:52;;;;;;;3.87;1.33;;;;;;;27.18;41.94;100549.69;8273677;28;20043;-63
2022/05/15 15:25:52;;;;;;;4.30;1.00;;;;;;;27.15;42.07;100555.72;8280887;28;20277;-63
2022/05/15 15:29:52;;;;;;;4.95;1.17;;;;;;;27.19;43.43;100540.25;8272632;28;20104;-63
2022/05/15 15:33:54;;;;;;;6.15;1.20;;;;;;;26.98;43.75;100543.75;8273017;28;20033;-63
2022/05/15 15:38:26;;;;;;;4.30;1.15;;;;;;;27.03;42.74;100535.50;8260358;28;20449;-63
2022/05/15 15:42:15;;;;;;;7.50;1.30;;;;;;;27.03;42.36;100535.50;8243307;28;20042;-62
2022/05/15 15:46:17;;;;;;;3.53;1.20;;;;;;;26.87;42.30;100541.84;8273809;28;20108;-62
2022/05/15 15:50:18;;;;;;;8.50;1.30;;;;;;;26.70;42.18;100539.84;8284139;28;20757;-62
2022/05/15 15:54:19;;;;;;;3.25;0.95;;;;;;;26.60;42.22;100525.69;8278099;28;20710;-62
2022/05/15 15:58:20;;;;;;;3.25;1.20;;;;;;;26.49;43.24;100523.78;8272140;28;20046;-63
2022/05/15 16:02:20;;;;;;;4.45;1.20;;;;;;;26.36;42.69;100523.22;8257555;28;20084;-62
2022/05/15 16:06:22;;;;;;;3.63;1.20;;;;;;;26.33;43.11;100521.78;8266275;28;20358;-62
2022/05/15 16:10:22;;;;;;;2.78;1.02;;;;;;;26.20;43.70;100516.47;8273002;28;20332;-62
2022/05/15 16:14:25;;;;;;;2.93;1.60;;;;;;;26.17;44.41;100529.97;8288468;28;20053;-61
2022/05/15 16:18:27;;;;;;;4.82;1.30;;;;;;;26.21;44.24;100520.94;8274393;28;20050;-62
2022/05/15 16:22:31;;;;;;;2.92;1.40;;;;;;;26.13;44.39;100510.22;8267667;28;20400;-62
2022/05/15 16:26:33;;;;;;;;;;;;;;;26.04;44.10;100505.28;8267013;28;20081;-62
2022/05/15 16:30:34;;;;;;;2.92;1.48;;;;;;;25.96;45.24;100500.91;8270729;28;19921;-62
2022/05/15 16:34:35;;;;;;;5.90;1.30;;;;;;;25.98;45.48;100509.84;8268472;28;20049;-61
2022/05/15 16:38:39;;;;;;;3.40;1.30;;;;;;;26.06;45.22;100498.41;8279056;28;20046;-61
2022/05/15 16:42:41;;;;;;;;;;;;;;;26.03;46.47;100490.56;8279894;28;20048;-61
2022/05/15 16:46:42;;;;;;;2.88;1.38;;;;;;;25.90;46.29;100490.78;8273889;28;19925;-61
2022/05/15 16:50:43;;;;;;;3.22;1.10;;;;;;;25.97;47.23;100491.50;8280860;28;20042;-61
2022/05/15 16:54:43;;;;;;;3.92;1.75;;;;;;;26.01;46.15;100481.66;8273601;28;20042;-61
2022/05/15 16:58:43;;;;;;;3.10;1.50;;;;;;;26.07;46.29;100474.31;8283318;28;20038;-61
2022/05/15 17:02:46;;;;;;;3.38;1.80;;;;;;;26.07;46.12;100472.38;8269586;28;20038;-61
2022/05/15 17:06:46;;;;;;;4.82;1.80;;;;;;;26.07;47.03;100469.59;8270440;28;20129;-61
2022/05/15 17:10:47;;;;;;;2.83;1.40;;;;;;;26.07;46.33;100469.59;8268661;28;20468;-61
2022/05/15 17:14:48;;;;;;;5.45;2.00;;;;;;;26.07;47.73;100468.78;8277990;28;20053;-61
2022/05/15 17:18:48;;;;;;;3.83;1.52;;;;;;;25.89;47.49;100464.16;8273077;28;20046;-61
2022/05/15 17:22:49;;;;;;;4.50;1.53;;;;;;;25.81;46.78;100459.00;8280342;28;20164;-61
2022/05/15 17:26:49;;;;;;;3.58;1.80;;;;;;;25.64;47.99;100455.25;8276914;28;20343;-61
2022/05/15 17:35:15;;;;;;;5.15;1.77;;;;;;;25.40;48.02;100444.38;8269811;28;20037;-61
2022/05/15 17:39:17;;;;;;;5.15;1.42;;;;;;;25.35;48.68;100433.19;8265600;28;20040;-61
2022/05/15 17:43:18;;;;;;;3.25;1.58;;;;;;;25.27;48.79;100427.94;8264414;28;20053;-61
2022/05/15 17:47:18;;;;;;;3.08;1.65;;;;;;;25.21;48.90;100435.28;8256251;28;20046;-62
2022/05/15 17:51:19;;;;;;;7.45;1.80;;;;;;;25.06;49.73;100429.34;8264611;28;20126;-61
2022/05/15 17:55:19;;;;;;;6.00;1.45;;;;;;;24.96;49.92;100426.31;8253945;28;20034;-62
2022/05/15 17:59:20;;;;;;;6.47;1.55;;;;;;;24.97;49.44;100423.31;8266330;28;20045;-62
2022/05/15 18:03:21;;;;;;;4.82;1.50;;;;;;;24.88;50.29;100401.75;8279727;28;20156;-62
2022/05/15 18:07:21;;;;;;;5.35;2.08;;;;;;;24.75;50.62;100424.94;8279523;28;20057;-61
2022/05/15 18:11:21;;;;;;;3.92;1.75;;;;;;;24.70;50.24;100418.44;8275721;28;20049;-62
2022/05/15 18:15:22;;;;;;;4.75;1.60;;;;;;;24.52;50.97;100410.13;8229969;28;20825;-61
2022/05/15 18:19:22;;;;;;;10.15;2.25;;;;;;;24.43;51.14;100414.31;8230617;28;20419;-62
2022/05/15 18:23:24;;;;;;;5.33;1.70;;;;;;;24.31;51.53;100411.44;8223433;28;20049;-62
2022/05/15 18:27:25;;;;;;;7.28;2.40;;;;;;;24.23;51.88;100413.69;8228634;28;20339;-62
2022/05/15 18:31:26;;;;;;;4.68;1.70;;;;;;;24.15;52.16;100417.59;8225911;28;21437;-62
2022/05/15 18:35:27;;;;;;;5.90;2.42;;;;;;;24.14;52.28;100420.59;8229542;28;20046;-62
2022/05/15 18:39:28;;;;;;;4.88;1.73;;;;;;;24.07;52.15;100411.56;8229266;28;20052;-62
2022/05/15 18:43:30;;;;;;;7.17;1.83;;;;;;;23.93;52.74;100418.25;8230478;28;20639;-62
2022/05/15 18:47:31;;;;;;;5.57;2.03;;;;;;;23.82;53.02;100414.34;8229807;28;20891;-62
2022/05/15 18:55:51;;;;;;;5.13;1.77;;;;;;;23.81;53.06;100425.63;8277609;28;20046;-63
2022/05/15 18:59:54;;;;;;;6.20;1.77;;;;;;;23.51;53.85;100425.50;8270251;28;20602;-63
2022/05/15 19:03:54;;;;;;;6.57;2.20;;;;;;;23.36;54.45;100425.00;8268890;28;20121;-63
2022/05/15 19:07:55;;;;;;;5.18;1.80;;;;;;;23.12;55.02;100421.13;8275720;28;20323;-63
2022/05/15 19:11:55;;;;;;;6.47;2.05;;;;;;;22.96;55.27;100424.44;8276811;28;20057;-63
2022/05/15 19:15:57;;;;;;;5.25;2.28;;;;;;;22.95;54.91;100414.47;8286339;28;20391;-64
2022/05/15 19:19:57;;;;;;;4.30;2.13;;;;;;;22.84;55.30;100417.13;8279456;28;20628;-64
2022/05/15 19:23:58;;;;;;;6.07;2.00;;;;;;;22.80;55.55;100418.59;8285771;28;20478;-63
2022/05/15 19:27:59;;;;;;;7.47;2.05;;;;;;;22.62;55.64;100419.34;8285704;28;20038;-64
2022/05/15 19:31:59;;;;;;;5.72;2.20;;;;;;;22.48;56.25;100414.13;8282299;28;20061;-64
2022/05/15 19:36:01;;;;;;;6.78;1.98;;;;;;;22.46;56.20;100419.84;8282419;28;20518;-64